Time;durP1;ratioP1;P1;durP2;ratioP2;P2;SDS_P1;SDS_P2;PMS_P1;PMS_P2;Temp;Humidity;BMP_temperature;BMP_pressure;BME280_temperature;BME280_humidity;BME280_pressure;Samples;Min_cycle;Max_cycle;Signal;HPM_P1;HPM_P2
2023/04/03 00:01:19;;;;;;;;;;;23.00;31.70;;;;;;5092322;28;20022;-71
2023/04/03 00:03:45;;;;;;;;;;;23.00;31.60;;;;;;5091280;28;20056;-72
2023/04/03 00:06:11;;;;;;;;;;;23.00;31.60;;;;;;5092166;28;19974;-72
2023/04/03 00:08:37;;;;;;;;;;;23.00;31.60;;;;;;5092442;28;20295;-72
2023/04/03 00:11:03;;;;;;;;;;;22.90;31.80;;;;;;5090904;28;19927;-72
2023/04/03 00:13:29;;;;;;;;;;;22.80;32.00;;;;;;5090856;28;19951;-72
2023/04/03 00:15:54;;;;;;;;;;;22.70;32.10;;;;;;5090964;28;19971;-72
2023/04/03 00:18:20;;;;;;;;;;;22.60;32.20;;;;;;5090844;28;19924;-72
2023/04/03 00:20:45;;;;;;;;;;;22.50;32.20;;;;;;5090818;28;19920;-72
2023/04/03 00:23:11;;;;;;;;;;;22.50;32.20;;;;;;5092087;28;19989;-71
2023/04/03 00:25:37;;;;;;;;;;;22.50;32.30;;;;;;5092025;28;19920;-71
2023/04/03 00:28:02;;;;;;;;;;;22.60;32.30;;;;;;5092165;28;19920;-72
2023/04/03 00:30:28;;;;;;;;;;;22.60;32.10;;;;;;5090790;28;19967;-72
2023/04/03 00:32:54;;;;;;;;;;;22.70;32.00;;;;;;5091602;28;20263;-72
2023/04/03 00:35:20;;;;;;;;;;;22.80;31.90;;;;;;5094559;28;19963;-72
2023/04/03 00:37:46;;;;;;;;;;;22.90;31.90;;;;;;5094514;28;19920;-72
2023/04/03 00:40:12;;;;;;;;;;;22.90;31.80;;;;;;5094458;28;19920;-71
2023/04/03 00:42:39;;;;;;;;;;;22.90;31.70;;;;;;5095944;28;20291;-72
2023/04/03 00:47:45;;;;;;;;;;;23.00;31.60;;;;;;5110373;27;19918;-72
2023/04/03 00:50:11;;;;;;;;;;;23.00;31.40;;;;;;5109070;28;19919;-72
2023/04/03 00:52:37;;;;;;;;;;;23.10;31.50;;;;;;5109274;28;20363;-72
2023/04/03 00:55:04;;;;;;;;;;;23.10;31.30;;;;;;5110137;28;20315;-71
2023/04/03 00:57:30;;;;;;;;;;;23.10;31.40;;;;;;5108889;28;19966;-71
2023/04/03 00:59:59;;;;;;;;;;;23.10;31.50;;;;;;5108736;28;19920;-71
2023/04/03 01:02:25;;;;;;;;;;;23.10;31.40;;;;;;5143071;27;19920;-72
2023/04/03 01:04:51;;;;;;;;;;;23.10;31.30;;;;;;5108873;28;19958;-72
2023/04/03 01:07:19;;;;;;;;;;;23.10;31.40;;;;;;5108580;28;19967;-72
2023/04/03 01:09:45;;;;;;;;;;;23.10;31.40;;;;;;5108853;28;20379;-72
2023/04/03 01:14:55;;;;;;;;;;;23.00;31.30;;;;;;5110262;27;19912;-71
2023/04/03 01:17:26;;;;;;;;;;;23.00;31.30;;;;;;5109245;28;20309;-72
2023/04/03 01:20:00;;;;;;;;;;;22.90;31.40;;;;;;5108875;28;19920;-73
2023/04/03 01:22:30;;;;;;;;;;;22.90;31.40;;;;;;5108844;28;19969;-73
2023/04/03 01:24:56;;;;;;;;;;;22.90;31.40;;;;;;5109093;28;19928;-72
2023/04/03 01:27:21;;;;;;;;;;;22.90;31.40;;;;;;5109244;28;20362;-72
2023/04/03 01:29:47;;;;;;;;;;;22.90;31.40;;;;;;5109003;28;19973;-72
2023/04/03 01:32:12;;;;;;;;;;;22.90;31.40;;;;;;5108935;28;19920;-73
2023/04/03 01:34:38;;;;;;;;;;;22.90;31.40;;;;;;5108609;28;20383;-73
2023/04/03 01:37:03;;;;;;;;;;;22.90;31.40;;;;;;5108508;28;19973;-73
2023/04/03 01:39:29;;;;;;;;;;;22.90;31.30;;;;;;5108534;28;19988;-72
2023/04/03 01:41:54;;;;;;;;;;;22.90;31.40;;;;;;5142840;27;19920;-73
2023/04/03 01:44:20;;;;;;;;;;;22.90;31.30;;;;;;5108794;28;19927;-72
2023/04/03 01:46:46;;;;;;;;;;;22.90;31.40;;;;;;5108657;28;19930;-73
2023/04/03 01:49:11;;;;;;;;;;;22.90;31.40;;;;;;5109577;28;20288;-73
2023/04/03 01:51:37;;;;;;;;;;;22.80;31.30;;;;;;5108248;28;19927;-72
2023/04/03 01:54:02;;;;;;;;;;;22.80;31.30;;;;;;5108408;28;19931;-72
2023/04/03 01:56:28;;;;;;;;;;;22.80;31.40;;;;;;5109496;28;20303;-72
2023/04/03 01:58:53;;;;;;;;;;;22.80;31.20;;;;;;5109588;28;19978;-72
2023/04/03 02:01:19;;;;;;;;;;;22.80;31.30;;;;;;5109374;28;19927;-72
2023/04/03 02:03:44;;;;;;;;;;;22.90;31.30;;;;;;5108076;28;19920;-73
2023/04/03 02:06:10;;;;;;;;;;;22.90;31.30;;;;;;5109317;28;19920;-73
2023/04/03 02:08:35;;;;;;;;;;;22.90;31.20;;;;;;5109308;28;19970;-73
2023/04/03 02:11:01;;;;;;;;;;;22.90;31.20;;;;;;5107972;28;20003;-73
2023/04/03 02:13:26;;;;;;;;;;;22.90;31.20;;;;;;5107649;28;19989;-73
2023/04/03 02:15:52;;;;;;;;;;;22.90;31.20;;;;;;5107833;28;19999;-72
2023/04/03 02:18:17;;;;;;;;;;;22.90;31.10;;;;;;5108942;28;19942;-72
2023/04/03 02:20:43;;;;;;;;;;;22.90;31.00;;;;;;5108018;28;19935;-72
2023/04/03 02:23:09;;;;;;;;;;;23.00;31.10;;;;;;5107922;28;20011;-73
2023/04/03 02:25:34;;;;;;;;;;;23.00;31.70;;;;;;5098269;28;19945;-72
2023/04/03 02:28:00;;;;;;;;;;;23.10;30.90;;;;;;5094039;28;19921;-73
2023/04/03 02:30:26;;;;;;;;;;;23.10;30.70;;;;;;5095402;28;19931;-73
2023/04/03 02:32:51;;;;;;;;;;;23.20;30.80;;;;;;5094071;28;19931;-73
2023/04/03 02:35:17;;;;;;;;;;;23.20;30.70;;;;;;5093815;28;19942;-72
2023/04/03 02:37:42;;;;;;;;;;;23.20;30.60;;;;;;5094139;28;19995;-73
2023/04/03 02:40:08;;;;;;;;;;;23.30;30.60;;;;;;5095315;28;19920;-73
2023/04/03 02:42:34;;;;;;;;;;;23.20;30.60;;;;;;5093770;28;19921;-73
2023/04/03 02:45:00;;;;;;;;;;;23.20;30.60;;;;;;5094177;28;19920;-73
2023/04/03 02:47:26;;;;;;;;;;;23.20;30.80;;;;;;5094923;28;19927;-73
2023/04/03 02:49:52;;;;;;;;;;;23.20;30.60;;;;;;5093876;28;20411;-73
2023/04/03 02:52:18;;;;;;;;;;;23.10;30.80;;;;;;5093612;28;20007;-74
2023/04/03 02:54:43;;;;;;;;;;;23.00;30.70;;;;;;5093420;28;20014;-72
2023/04/03 02:57:09;;;;;;;;;;;22.90;30.90;;;;;;5093461;28;20159;-72
2023/04/03 02:59:35;;;;;;;;;;;22.90;30.80;;;;;;5093702;28;19970;-72
2023/04/03 03:02:00;;;;;;;;;;;22.90;31.00;;;;;;5093710;28;19927;-73
2023/04/03 03:04:26;;;;;;;;;;;22.80;30.90;;;;;;5093316;28;20300;-72
2023/04/03 03:06:52;;;;;;;;;;;22.70;31.00;;;;;;5093455;28;19920;-72
2023/04/03 03:09:18;;;;;;;;;;;22.80;31.10;;;;;;5092569;28;20053;-72
2023/04/03 03:11:43;;;;;;;;;;;22.70;31.00;;;;;;5093389;28;19943;-72
2023/04/03 03:14:09;;;;;;;;;;;22.70;31.00;;;;;;5092853;28;19976;-72
2023/04/03 03:16:34;;;;;;;;;;;22.70;31.00;;;;;;5093440;28;20359;-72
2023/04/03 03:19:00;;;;;;;;;;;22.70;31.00;;;;;;5092940;28;19940;-72
2023/04/03 03:21:26;;;;;;;;;;;22.70;31.10;;;;;;5093335;28;19924;-72
2023/04/03 03:23:51;;;;;;;;;;;22.70;31.00;;;;;;5093472;28;19927;-72
2023/04/03 03:26:17;;;;;;;;;;;22.70;30.90;;;;;;5092937;28;19927;-73
2023/04/03 03:28:42;;;;;;;;;;;22.70;31.00;;;;;;5094280;28;19920;-72
2023/04/03 03:31:08;;;;;;;;;;;22.80;31.00;;;;;;5092833;28;20410;-72
2023/04/03 03:33:34;;;;;;;;;;;22.80;30.90;;;;;;5094043;28;19970;-72
2023/04/03 03:36:00;;;;;;;;;;;22.80;30.90;;;;;;5093319;28;19920;-72
2023/04/03 03:38:25;;;;;;;;;;;22.80;30.90;;;;;;5092269;28;19927;-72
2023/04/03 03:40:51;;;;;;;;;;;22.80;30.90;;;;;;5093891;28;19926;-72
2023/04/03 03:43:17;;;;;;;;;;;22.80;30.80;;;;;;5092893;28;20019;-73
2023/04/03 03:45:43;;;;;;;;;;;22.80;30.90;;;;;;5093879;28;19998;-73
2023/04/03 03:48:08;;;;;;;;;;;22.90;31.00;;;;;;5093903;28;20410;-73
2023/04/03 03:50:34;;;;;;;;;;;22.80;30.90;;;;;;5093668;28;19934;-72
2023/04/03 03:53:00;;;;;;;;;;;22.80;30.80;;;;;;5092354;28;19960;-72
2023/04/03 03:55:25;;;;;;;;;;;22.80;30.80;;;;;;5092548;28;20127;-72
2023/04/03 03:57:51;;;;;;;;;;;22.80;30.80;;;;;;5092298;28;20354;-72
2023/04/03 04:00:17;;;;;;;;;;;22.80;30.80;;;;;;5092498;28;19924;-72
2023/04/03 04:02:43;;;;;;;;;;;22.80;30.80;;;;;;5092200;28;19920;-72
2023/04/03 04:05:08;;;;;;;;;;;22.80;30.90;;;;;;5093428;28;19920;-72
2023/04/03 04:07:34;;;;;;;;;;;22.70;30.90;;;;;;5092323;28;20384;-73
2023/04/03 04:09:59;;;;;;;;;;;22.70;30.80;;;;;;5093390;28;19969;-72
2023/04/03 04:12:25;;;;;;;;;;;22.70;30.90;;;;;;5092029;28;19920;-72
2023/04/03 04:14:50;;;;;;;;;;;22.70;30.80;;;;;;5091692;28;19930;-72
2023/04/03 04:17:16;;;;;;;;;;;22.70;31.00;;;;;;5091857;28;20295;-72
2023/04/03 04:19:41;;;;;;;;;;;22.60;30.80;;;;;;5091868;28;19927;-72
2023/04/03 04:22:07;;;;;;;;;;;22.60;30.90;;;;;;5091753;28;19920;-72
2023/04/03 04:24:32;;;;;;;;;;;22.60;30.80;;;;;;5092117;28;19920;-72
2023/04/03 04:26:58;;;;;;;;;;;22.70;30.90;;;;;;5092911;28;19946;-72
2023/04/03 04:29:24;;;;;;;;;;;22.70;30.80;;;;;;5091986;28;19963;-74
2023/04/03 04:31:49;;;;;;;;;;;22.70;30.80;;;;;;5091905;28;20014;-72
2023/04/03 04:34:15;;;;;;;;;;;22.60;30.70;;;;;;5092977;28;19977;-72
2023/04/03 04:36:41;;;;;;;;;;;22.60;30.70;;;;;;5091546;28;19989;-73
2023/04/03 04:39:06;;;;;;;;;;;22.60;30.70;;;;;;5091581;28;19928;-72
2023/04/03 04:41:32;;;;;;;;;;;22.60;30.60;;;;;;5092781;28;19928;-73
2023/04/03 04:43:58;;;;;;;;;;;22.60;30.60;;;;;;5091473;28;19924;-72
2023/04/03 04:46:23;;;;;;;;;;;22.60;30.60;;;;;;5091657;28;19928;-75
2023/04/03 04:48:49;;;;;;;;;;;22.60;30.60;;;;;;5091593;28;20014;-72
2023/04/03 04:51:14;;;;;;;;;;;22.60;30.60;;;;;;5091756;28;19927;-72
2023/04/03 04:53:40;;;;;;;;;;;22.60;30.60;;;;;;5091345;28;20272;-72
2023/04/03 04:56:06;;;;;;;;;;;22.60;30.60;;;;;;5092606;28;20407;-71
2023/04/03 04:58:32;;;;;;;;;;;22.70;30.60;;;;;;5091278;28;19924;-71
2023/04/03 05:00:59;;;;;;;;;;;22.70;30.50;;;;;;5091284;28;19972;-72
2023/04/03 05:03:25;;;;;;;;;;;22.70;30.50;;;;;;5091571;28;19927;-72
2023/04/03 05:05:50;;;;;;;;;;;22.70;30.50;;;;;;5091280;28;20287;-72
2023/04/03 05:08:16;;;;;;;;;;;22.70;30.50;;;;;;5092489;28;20073;-72
2023/04/03 05:10:42;;;;;;;;;;;22.70;30.50;;;;;;5091380;28;20378;-72
2023/04/03 05:13:07;;;;;;;;;;;22.70;30.40;;;;;;5090843;28;19931;-72
2023/04/03 05:15:33;;;;;;;;;;;22.70;30.40;;;;;;5092460;28;19920;-71
2023/04/03 05:17:58;;;;;;;;;;;22.70;30.40;;;;;;5092413;28;19927;-71
2023/04/03 05:20:25;;;;;;;;;;;22.70;30.50;;;;;;5091475;28;20291;-72
2023/04/03 05:22:50;;;;;;;;;;;22.70;30.50;;;;;;5091331;28;19970;-72
2023/04/03 05:25:16;;;;;;;;;;;22.60;30.30;;;;;;5091196;28;19924;-72
2023/04/03 05:27:41;;;;;;;;;;;22.60;30.40;;;;;;5092539;28;20015;-71
2023/04/03 05:30:08;;;;;;;;;;;22.70;30.40;;;;;;5091082;28;19920;-72
2023/04/03 05:32:33;;;;;;;;;;;22.60;30.40;;;;;;5090012;28;20359;-72
2023/04/03 05:34:59;;;;;;;;;;;22.60;30.30;;;;;;5091141;28;19920;-71
2023/04/03 05:37:24;;;;;;;;;;;22.60;30.30;;;;;;5088809;28;20011;-70
2023/04/03 05:39:50;;;;;;;;;;;22.70;31.00;;;;;;5088672;28;20007;-71
2023/04/03 05:42:15;;;;;;;;;;;22.60;30.30;;;;;;5089755;28;19924;-68
2023/04/03 05:44:41;;;;;;;;;;;22.40;30.30;;;;;;5090129;28;19920;-70
2023/04/03 05:47:07;;;;;;;;;;;22.20;30.30;;;;;;5088843;28;20299;-71
2023/04/03 05:49:32;;;;;;;;;;;22.10;30.50;;;;;;5085211;28;19920;-67
2023/04/03 05:51:58;;;;;;;;;;;22.00;30.20;;;;;;5086664;28;19920;-71
2023/04/03 05:54:24;;;;;;;;;;;21.90;29.90;;;;;;5087610;28;19935;-70
2023/04/03 05:56:50;;;;;;;;;;;22.00;30.30;;;;;;5088053;28;19920;-70
2023/04/03 05:59:16;;;;;;;;;;;22.10;29.90;;;;;;5089068;28;20042;-71
2023/04/03 06:01:42;;;;;;;;;;;22.20;30.00;;;;;;5081544;28;20321;-71
2023/04/03 06:04:08;;;;;;;;;;;22.20;29.60;;;;;;5081708;28;19921;-71
2023/04/03 06:09:30;;;;;;;;;;;22.40;29.10;;;;;;5101812;27;19920;-71
2023/04/03 06:11:58;;;;;;;;;;;22.60;29.40;;;;;;5099043;28;19924;-71
2023/04/03 06:14:25;;;;;;;;;;;22.80;29.30;;;;;;5102616;28;20375;-71
2023/04/03 06:16:51;;;;;;;;;;;23.00;29.20;;;;;;5095784;28;20348;-71
2023/04/03 06:19:16;;;;;;;;;;;23.30;29.10;;;;;;5098915;28;20197;-70
2023/04/03 06:21:42;;;;;;;;;;;23.60;28.90;;;;;;5099760;28;19993;-67
2023/04/03 06:24:12;;;;;;;;;;;23.60;29.10;;;;;;5100660;28;19927;-69
2023/04/03 06:26:37;;;;;;;;;;;23.60;29.30;;;;;;5099953;28;19924;-69
2023/04/03 06:29:03;;;;;;;;;;;23.50;29.40;;;;;;5088513;28;19940;-68
2023/04/03 06:31:29;;;;;;;;;;;23.50;29.70;;;;;;5089043;28;19958;-71
2023/04/03 06:33:55;;;;;;;;;;;23.60;29.70;;;;;;5095744;27;19963;-71
2023/04/03 06:36:20;;;;;;;;;;;23.70;29.70;;;;;;5084862;28;20005;-72
2023/04/03 06:38:46;;;;;;;;;;;23.70;29.90;;;;;;5082473;28;19920;-71
2023/04/03 06:41:12;;;;;;;;;;;23.60;29.90;;;;;;5078277;28;20028;-70
2023/04/03 06:43:37;;;;;;;;;;;23.50;30.00;;;;;;5082636;28;19931;-72
2023/04/03 06:46:03;;;;;;;;;;;23.40;30.10;;;;;;5086762;28;20408;-69
2023/04/03 06:48:29;;;;;;;;;;;23.20;30.30;;;;;;5086641;28;19936;-68
2023/04/03 06:50:55;;;;;;;;;;;23.00;30.60;;;;;;5085983;28;19931;-69
2023/04/03 06:53:21;;;;;;;;;;;22.80;30.90;;;;;;5121857;27;19924;-70
2023/04/03 06:55:47;;;;;;;;;;;22.70;31.00;;;;;;5088981;28;19978;-69
2023/04/03 06:58:13;;;;;;;;;;;22.70;31.10;;;;;;5087466;28;19924;-71
2023/04/03 07:00:39;;;;;;;;;;;22.60;31.20;;;;;;5090349;28;20447;-75
2023/04/03 07:03:04;;;;;;;;;;;22.50;31.20;;;;;;5085919;28;20022;-74
2023/04/03 07:05:30;;;;;;;;;;;22.50;31.40;;;;;;5084887;28;19924;-71
2023/04/03 07:07:56;;;;;;;;;;;22.40;31.50;;;;;;5084506;28;20024;-69
2023/04/03 07:10:21;;;;;;;;;;;22.30;31.50;;;;;;5085437;28;19928;-68
2023/04/03 07:12:47;;;;;;;;;;;22.30;31.80;;;;;;5087741;28;19939;-66
2023/04/03 07:15:13;;;;;;;;;;;22.20;32.00;;;;;;5086392;28;20360;-71
2023/04/03 07:17:40;;;;;;;;;;;22.20;31.90;;;;;;5085250;28;20484;-67
2023/04/03 07:20:06;;;;;;;;;;;22.20;32.00;;;;;;5076953;28;19924;-72
2023/04/03 07:22:31;;;;;;;;;;;22.20;32.10;;;;;;5070174;28;20009;-75
2023/04/03 07:24:58;;;;;;;;;;;22.30;32.10;;;;;;5072842;28;20155;-74
2023/04/03 07:27:25;;;;;;;;;;;22.40;31.70;;;;;;5074743;28;20023;-70
2023/04/03 07:29:50;;;;;;;;;;;22.50;31.40;;;;;;5075530;28;19924;-73
2023/04/03 07:32:17;;;;;;;;;;;22.70;31.10;;;;;;5072162;28;19924;-71
2023/04/03 07:34:43;;;;;;;;;;;22.80;31.30;;;;;;5106839;27;20414;-71
2023/04/03 07:37:08;;;;;;;;;;;22.90;31.60;;;;;;5073147;28;20130;-70
2023/04/03 07:39:34;;;;;;;;;;;23.00;31.40;;;;;;5071675;28;19925;-72
2023/04/03 07:42:00;;;;;;;;;;;23.00;31.10;;;;;;5073833;28;19932;-69
2023/04/03 07:44:26;;;;;;;;;;;23.00;31.00;;;;;;5075561;28;19935;-70
2023/04/03 07:46:51;;;;;;;;;;;23.10;31.10;;;;;;5071781;28;19928;-69
2023/04/03 07:49:18;;;;;;;;;;;23.20;31.00;;;;;;5071759;28;19928;-67
2023/04/03 07:51:43;;;;;;;;;;;23.10;30.90;;;;;;5073674;28;19962;-66
2023/04/03 07:54:09;;;;;;;;;;;23.20;31.10;;;;;;5106882;27;20035;-65
2023/04/03 07:56:35;;;;;;;;;;;23.30;30.70;;;;;;5073121;28;19947;-67
2023/04/03 07:59:00;;;;;;;;;;;23.40;30.90;;;;;;5072836;28;20031;-69
2023/04/03 08:01:26;;;;;;;;;;;23.30;30.90;;;;;;5073977;28;19963;-75
2023/04/03 08:03:51;;;;;;;;;;;23.40;31.30;;;;;;5071225;28;20375;-73
2023/04/03 08:06:17;;;;;;;;;;;23.40;31.40;;;;;;5073299;28;20350;-69
2023/04/03 08:08:43;;;;;;;;;;;23.40;31.30;;;;;;5074853;28;19928;-71
2023/04/03 08:11:10;;;;;;;;;;;23.40;31.20;;;;;;5072765;28;19931;-70
2023/04/03 08:13:35;;;;;;;;;;;23.30;30.90;;;;;;5067859;28;19924;-74
2023/04/03 08:16:09;;;;;;;;;;;23.00;31.10;;;;;;5071831;28;20058;-67
2023/04/03 08:18:35;;;;;;;;;;;22.80;31.50;;;;;;5102904;27;19928;-69
2023/04/03 08:21:00;;;;;;;;;;;22.50;31.90;;;;;;5070727;28;19920;-71
2023/04/03 08:23:26;;;;;;;;;;;22.20;32.20;;;;;;5070976;28;19933;-71
2023/04/03 08:25:51;;;;;;;;;;;22.00;32.50;;;;;;5070512;28;20375;-71
2023/04/03 08:28:17;;;;;;;;;;;21.90;32.70;;;;;;5069670;28;20324;-70
2023/04/03 08:30:43;;;;;;;;;;;21.70;32.90;;;;;;5070416;28;19979;-71
2023/04/03 08:33:09;;;;;;;;;;;21.50;33.00;;;;;;5068997;28;19928;-69
2023/04/03 08:35:42;;;;;;;;;;;21.40;33.50;;;;;;5073644;28;19985;-69
2023/04/03 08:38:08;;;;;;;;;;;21.20;33.50;;;;;;5076473;28;19974;-69
2023/04/03 08:40:33;;;;;;;;;;;20.90;33.40;;;;;;5072760;28;19928;-69
2023/04/03 08:43:19;;;;;;;;;;;20.70;33.50;;;;;;5070049;28;20054;-70
2023/04/03 08:45:48;;;;;;;;;;;20.60;33.80;;;;;;5100719;27;20350;-70
2023/04/03 08:48:19;;;;;;;;;;;20.30;34.60;;;;;;5066660;28;20215;-69
2023/04/03 08:50:47;;;;;;;;;;;20.10;34.20;;;;;;5065173;28;19931;-72
2023/04/03 08:53:15;;;;;;;;;;;20.00;34.30;;;;;;5071158;28;20056;-77
2023/04/03 08:55:45;;;;;;;;;;;19.90;34.50;;;;;;5101725;27;20330;-70
2023/04/03 08:58:15;;;;;;;;;;;19.80;34.60;;;;;;5069235;28;19928;-72
2023/04/03 09:00:45;;;;;;;;;;;19.70;35.00;;;;;;5070419;28;19967;-73
2023/04/03 09:03:13;;;;;;;;;;;19.60;34.90;;;;;;5070397;28;19928;-68
2023/04/03 09:05:43;;;;;;;;;;;19.50;35.00;;;;;;5069967;28;19920;-74
2023/04/03 09:08:18;;;;;;;;;;;19.40;35.00;;;;;;5068302;28;20581;-79
2023/04/03 09:10:43;;;;;;;;;;;19.30;35.00;;;;;;5066516;28;19928;-80
2023/04/03 09:13:29;;;;;;;;;;;19.20;35.00;;;;;;5070449;28;19924;-74
2023/04/03 09:15:56;;;;;;;;;;;19.10;35.20;;;;;;5104537;27;19924;-77
2023/04/03 09:18:26;;;;;;;;;;;19.00;35.30;;;;;;5073873;28;20006;-75
2023/04/03 09:21:11;;;;;;;;;;;18.90;35.30;;;;;;5072018;28;19924;-78
2023/04/03 09:23:43;;;;;;;;;;;18.80;35.30;;;;;;5068800;28;20643;-83
2023/04/03 09:26:28;;;;;;;;;;;18.70;35.50;;;;;;5069999;28;19959;-77
2023/04/03 09:28:55;;;;;;;;;;;18.70;35.70;;;;;;5071687;28;19929;-75
2023/04/03 09:34:07;;;;;;;;;;;18.50;35.50;;;;;;5079503;27;20454;-75
2023/04/03 09:36:49;;;;;;;;;;;18.60;35.60;;;;;;5066596;28;20066;-85
2023/04/03 09:39:18;;;;;;;;;;;18.40;35.80;;;;;;5071573;28;20341;-72
2023/04/03 09:42:04;;;;;;;;;;;18.40;36.00;;;;;;5076082;28;20001;-73
2023/04/03 09:44:31;;;;;;;;;;;18.40;36.20;;;;;;5078340;28;20710;-71
2023/04/03 09:46:57;;;;;;;;;;;18.40;36.50;;;;;;5078608;28;19924;-76
2023/04/03 09:49:22;;;;;;;;;;;18.30;36.40;;;;;;5076483;28;19932;-74
2023/04/03 09:51:48;;;;;;;;;;;18.30;36.60;;;;;;5073387;28;19924;-73
2023/04/03 09:57:11;;;;;;;;;;;18.20;36.90;;;;;;5068337;27;19921;-78
2023/04/03 09:59:41;;;;;;;;;;;18.20;36.90;;;;;;5063549;28;20398;-75
2023/04/03 10:04:46;;;;;;;;;;;18.30;37.10;;;;;;5077592;27;19923;-72
2023/04/03 10:07:26;;;;;;;;;;;18.30;36.90;;;;;;5079869;28;20407;-80
2023/04/03 10:09:56;;;;;;;;;;;18.40;37.20;;;;;;5084682;28;20451;-82
2023/04/03 10:12:22;;;;;;;;;;;18.40;36.80;;;;;;5078449;28;20295;-77
2023/04/03 10:14:56;;;;;;;;;;;18.40;37.00;;;;;;5079524;28;19928;-78
2023/04/03 10:17:42;;;;;;;;;;;18.50;37.10;;;;;;5075722;28;19924;-84
2023/04/03 10:28:23;;;;;;;;;;;18.50;37.00;;;;;;5072245;27;19925;-72
2023/04/03 10:31:05;;;;;;;;;;;18.50;37.10;;;;;;5052740;28;20375;-69
2023/04/03 10:36:17;;;;;;;;;;;18.40;36.70;;;;;;5070082;27;19924;-76
2023/04/03 10:38:48;;;;;;;;;;;18.40;36.40;;;;;;5069330;28;19928;-68
2023/04/03 10:41:28;;;;;;;;;;;18.40;36.40;;;;;;5068184;28;20429;-68
2023/04/03 10:46:41;;;;;;;;;;;18.40;36.30;;;;;;5070388;27;20267;-67
2023/04/03 10:49:27;;;;;;;;;;;18.50;36.50;;;;;;5071169;28;20051;-66
2023/04/03 10:54:45;;;;;;;;;;;19.60;34.30;;;;;;5068322;27;19925;-68
2023/04/03 10:57:11;;;;;;;;;;;20.20;33.50;;;;;;5071921;28;19924;-76
2023/04/03 10:59:40;;;;;;;;;;;20.60;33.00;;;;;;5073204;28;20287;-75
2023/04/03 11:02:11;;;;;;;;;;;20.80;33.00;;;;;;5103807;27;20360;-79
2023/04/03 11:04:39;;;;;;;;;;;21.00;33.00;;;;;;5069518;28;19935;-81
2023/04/03 11:07:09;;;;;;;;;;;21.30;32.90;;;;;;5069005;28;20405;-80
2023/04/03 11:09:37;;;;;;;;;;;21.50;32.80;;;;;;5076038;28;19932;-71
2023/04/03 11:12:12;;;;;;;;;;;21.80;32.40;;;;;;5071135;28;20009;-71
2023/04/03 11:14:38;;;;;;;;;;;22.00;32.50;;;;;;5070747;28;19928;-72
2023/04/03 11:17:11;;;;;;;;;;;22.20;32.10;;;;;;5055701;28;20339;-77
2023/04/03 11:19:56;;;;;;;;;;;22.30;32.10;;;;;;5076213;28;19925;-74
2023/04/03 11:22:26;;;;;;;;;;;22.30;32.20;;;;;;5075391;28;19959;-75
2023/04/03 11:24:58;;;;;;;;;;;22.50;30.80;;;;;;5078995;28;19935;-72
2023/04/03 11:27:25;;;;;;;;;;;22.50;30.70;;;;;;5093203;28;19934;-77
2023/04/03 11:29:51;;;;;;;;;;;22.50;30.20;;;;;;5069329;28;20705;-70
2023/04/03 11:32:27;;;;;;;;;;;22.40;29.50;;;;;;5098070;27;20030;-75
2023/04/03 11:34:56;;;;;;;;;;;22.40;29.80;;;;;;5073083;28;19933;-74
2023/04/03 11:37:26;;;;;;;;;;;22.40;29.50;;;;;;5071656;28;19925;-79
2023/04/03 11:39:56;;;;;;;;;;;22.30;29.50;;;;;;5104721;27;20713;-70
2023/04/03 11:42:26;;;;;;;;;;;22.40;29.60;;;;;;5069842;28;19977;-71
2023/04/03 11:45:12;;;;;;;;;;;22.40;30.00;;;;;;5077683;28;20414;-80
2023/04/03 11:47:47;;;;;;;;;;;22.40;29.80;;;;;;5104749;27;20378;-72
2023/04/03 11:50:31;;;;;;;;;;;22.40;29.50;;;;;;5105332;27;19929;-75
2023/04/03 11:52:58;;;;;;;;;;;22.40;30.00;;;;;;5067013;28;19944;-77
2023/04/03 11:58:13;;;;;;;;;;;22.40;29.90;;;;;;5088966;27;19957;-73
2023/04/03 12:03:30;;;;;;;;;;;22.50;30.00;;;;;;5074758;27;20406;-73
2023/04/03 12:11:25;;;;;;;;;;;22.80;29.70;;;;;;5083800;27;19928;-79
2023/04/03 12:16:41;;;;;;;;;;;22.80;29.10;;;;;;5076621;27;19920;-73
2023/04/03 12:24:38;;;;;;;;;;;23.00;28.90;;;;;;5077905;27;19931;-76
2023/04/03 12:27:13;;;;;;;;;;;23.00;28.80;;;;;;5079426;28;20437;-72
2023/04/03 12:29:44;;;;;;;;;;;23.10;28.90;;;;;;5077712;28;19936;-76
2023/04/03 12:32:30;;;;;;;;;;;23.00;28.80;;;;;;5075004;28;20018;-72
2023/04/03 12:35:15;;;;;;;;;;;23.10;28.90;;;;;;5066952;28;19925;-76
2023/04/03 12:40:41;;;;;;;;;;;23.20;28.40;;;;;;5089262;27;19955;-73
2023/04/03 12:43:26;;;;;;;;;;;23.20;28.50;;;;;;5090513;28;19924;-74
2023/04/03 12:48:37;;;;;;;;;;;23.20;28.70;;;;;;5075294;27;19927;-73
2023/04/03 12:51:03;;;;;;;;;;;23.20;29.20;;;;;;5070873;28;19986;-75
2023/04/03 12:53:33;;;;;;;;;;;23.20;28.80;;;;;;5071717;28;19925;-71
2023/04/03 12:56:22;;;;;;;;;;;23.20;28.80;;;;;;5073802;28;19926;-75
2023/04/03 12:58:48;;;;;;;;;;;23.10;29.00;;;;;;5097102;27;20613;-74
2023/04/03 13:01:16;;;;;;;;;;;23.10;28.90;;;;;;5066798;28;19924;-75
2023/04/03 13:03:43;;;;;;;;;;;23.10;29.00;;;;;;5075928;28;19962;-74
2023/04/03 13:06:14;;;;;;;;;;;23.20;29.30;;;;;;5078177;28;19927;-76
2023/04/03 13:08:47;;;;;;;;;;;23.10;29.20;;;;;;5078680;28;19928;-74
2023/04/03 13:11:14;;;;;;;;;;;23.10;28.30;;;;;;5078177;28;19924;-76
2023/04/03 13:13:40;;;;;;;;;;;23.00;27.60;;;;;;5079938;28;20119;-76
2023/04/03 13:16:09;;;;;;;;;;;23.00;27.50;;;;;;5078544;28;19924;-75
2023/04/03 13:18:35;;;;;;;;;;;23.00;27.50;;;;;;5075923;28;19978;-76
2023/04/03 13:21:03;;;;;;;;;;;23.00;27.40;;;;;;5080678;28;20012;-77
2023/04/03 13:23:29;;;;;;;;;;;22.90;27.40;;;;;;5080084;28;20323;-76
2023/04/03 13:25:57;;;;;;;;;;;22.90;27.10;;;;;;5081285;28;19962;-75
2023/04/03 13:28:24;;;;;;;;;;;22.90;27.40;;;;;;5084952;28;19996;-75
2023/04/03 13:30:59;;;;;;;;;;;22.90;27.40;;;;;;5078993;28;20131;-76
2023/04/03 13:33:26;;;;;;;;;;;22.80;27.30;;;;;;5081385;28;19932;-78
2023/04/03 13:35:56;;;;;;;;;;;22.80;27.30;;;;;;5081200;28;19931;-76
2023/04/03 13:38:25;;;;;;;;;;;22.90;26.90;;;;;;5083396;28;19925;-77
2023/04/03 13:40:52;;;;;;;;;;;23.00;26.60;;;;;;5083859;28;19920;-73
2023/04/03 13:43:21;;;;;;;;;;;23.00;27.10;;;;;;5081729;28;19931;-72
2023/04/03 13:46:04;;;;;;;;;;;23.10;27.50;;;;;;5080559;28;19927;-73
2023/04/03 13:48:39;;;;;;;;;;;23.20;27.70;;;;;;5081670;28;19924;-74
2023/04/03 13:54:06;;;;;;;;;;;23.60;28.00;;;;;;5105025;27;19920;-73
2023/04/03 13:56:34;;;;;;;;;;;23.70;28.00;;;;;;5086017;28;19920;-74
2023/04/03 14:01:48;;;;;;;;;;;23.80;28.30;;;;;;5101083;27;19915;-74
2023/04/03 14:04:18;;;;;;;;;;;23.80;28.50;;;;;;5077968;28;19920;-69
2023/04/03 14:06:43;;;;;;;;;;;23.80;28.50;;;;;;5074982;28;19984;-73
2023/04/03 14:09:09;;;;;;;;;;;23.70;28.60;;;;;;5083328;28;19924;-73
2023/04/03 14:11:35;;;;;;;;;;;23.70;27.50;;;;;;5060216;28;19925;-71
2023/04/03 14:14:04;;;;;;;;;;;23.40;27.30;;;;;;5096970;28;19955;-72
2023/04/03 14:16:32;;;;;;;;;;;23.10;27.00;;;;;;5095887;28;20086;-72
2023/04/03 14:18:57;;;;;;;;;;;22.70;27.10;;;;;;5088115;28;19963;-74
2023/04/03 14:21:24;;;;;;;;;;;22.50;27.30;;;;;;5094446;28;20364;-73
2023/04/03 14:23:50;;;;;;;;;;;22.30;27.20;;;;;;5085425;28;19920;-73
2023/04/03 14:26:17;;;;;;;;;;;22.00;27.00;;;;;;5094272;28;20011;-74
2023/04/03 14:28:44;;;;;;;;;;;21.90;27.20;;;;;;5090079;28;19920;-74
2023/04/03 14:31:11;;;;;;;;;;;21.70;27.60;;;;;;5086993;28;19921;-73
2023/04/03 14:33:36;;;;;;;;;;;21.70;27.90;;;;;;5090858;28;19920;-74
2023/04/03 14:36:11;;;;;;;;;;;21.70;28.00;;;;;;5090271;28;19927;-74
2023/04/03 14:38:36;;;;;;;;;;;21.70;28.10;;;;;;5085966;28;19975;-74
2023/04/03 14:41:02;;;;;;;;;;;21.60;28.20;;;;;;5094999;28;19959;-74
2023/04/03 14:43:28;;;;;;;;;;;21.60;28.40;;;;;;5096296;28;19925;-75
2023/04/03 14:45:54;;;;;;;;;;;21.50;28.50;;;;;;5088841;28;19927;-74
2023/04/03 14:48:21;;;;;;;;;;;21.40;28.60;;;;;;5085622;28;19924;-75
2023/04/03 14:50:47;;;;;;;;;;;21.30;28.80;;;;;;5089112;28;19956;-75
2023/04/03 14:53:14;;;;;;;;;;;21.30;28.90;;;;;;5104430;28;19920;-74
2023/04/03 14:55:42;;;;;;;;;;;21.20;29.00;;;;;;5098579;28;20010;-74
2023/04/03 14:58:11;;;;;;;;;;;21.10;29.10;;;;;;5080196;28;19973;-75
2023/04/03 15:00:37;;;;;;;;;;;21.10;29.30;;;;;;5067208;28;20312;-74
2023/04/03 15:03:02;;;;;;;;;;;21.00;29.30;;;;;;5063913;28;19928;-74
2023/04/03 15:05:28;;;;;;;;;;;21.00;29.40;;;;;;5099558;28;19931;-74
2023/04/03 15:07:54;;;;;;;;;;;20.90;29.40;;;;;;5107055;28;19920;-74
2023/04/03 15:10:22;;;;;;;;;;;20.90;29.50;;;;;;5098198;28;20438;-74
2023/04/03 15:12:48;;;;;;;;;;;20.80;29.60;;;;;;5092319;28;19920;-74
2023/04/03 15:15:14;;;;;;;;;;;20.80;29.60;;;;;;5090819;28;19927;-74
2023/04/03 15:17:39;;;;;;;;;;;20.70;29.70;;;;;;5090995;28;20010;-75
2023/04/03 15:20:14;;;;;;;;;;;20.70;29.80;;;;;;5093330;28;20467;-75
2023/04/03 15:22:39;;;;;;;;;;;20.60;29.80;;;;;;5092597;28;19928;-75